Peotone Weather
Station Historical Data
 
Daily Summary for February 23, 2017 Units:  English    Metric   Both
« Previous Day
Next Day »
Daily Weekly Monthly Yearly Custom
  Current: High: Low: Average:
Temperature: 39.9 °F 55.4 °F 38.5 °F 47.5 °F
Dew Point: 38.3 °F 53.2 °F 36.9 °F 44.6 °F
Humidity: 94% 97% 74% 90%
Wind Speed: 12.6mph 20.7mph 0.0mph 6.1mph
Wind Gust: 14.9mph 27.6mph - -
WindNE - - SE
Pressure: 29.71 in 29.81 in 29.66 in -
Precipitation: 0.15 in      
Historical Graphs
 
 
Tabular Data for February 23, 2017
Time Temperature Dew Point Pressure Wind Wind Speed Wind Gust Humidity Rainfall Rate (Hourly) solar Conditions
00:00 55.4 °F 53.1 °F 29.66 in SSW 2.3 mph 8.1 mph 92% 0.00 in 0.00 W/m2
00:05 55.1 °F 52.8 °F 29.66 in WSW 6.9 mph 10.3 mph 92% 0.00 in 0.00 W/m2
00:10 55.0 °F 53.0 °F 29.66 in SW 6.9 mph 9.2 mph 93% 0.00 in 0.00 W/m2
00:15 54.7 °F 52.7 °F 29.66 in SW 6.9 mph 11.5 mph 93% 0.00 in 0.00 W/m2
00:20 54.5 °F 52.5 °F 29.66 in SW 5.8 mph 11.5 mph 93% 0.00 in 0.00 W/m2
00:25 54.4 °F 52.4 °F 29.67 in SSW 6.9 mph 9.2 mph 93% 0.00 in 0.00 W/m2
00:30 54.4 °F 52.4 °F 29.67 in WSW 5.8 mph 9.2 mph 93% 0.00 in 0.00 W/m2
00:35 54.3 °F 52.6 °F 29.67 in WSW 8.1 mph 11.5 mph 94% 0.00 in 0.00 W/m2
00:40 54.4 °F 52.7 °F 29.67 in WSW 4.6 mph 12.6 mph 94% 0.00 in 0.00 W/m2
00:45 54.4 °F 52.7 °F 29.67 in WSW 6.9 mph 12.6 mph 94% 0.00 in 0.00 W/m2
00:46 54.4 °F 52.7 °F 29.67 in WSW 8.1 mph 12.6 mph 94% 0.00 in 0.00 W/m2
00:50 54.5 °F 52.8 °F 29.67 in West 9.2 mph 12.6 mph 94% 0.00 in 0.00 W/m2
00:51 54.4 °F 52.7 °F 29.67 in WSW 11.5 mph 12.6 mph 94% 0.00 in 0.00 W/m2
00:55 54.4 °F 52.7 °F 29.67 in WSW 8.1 mph 13.8 mph 94% 0.00 in 0.00 W/m2
00:56 54.4 °F 52.7 °F 29.67 in SW 13.8 mph 13.8 mph 94% 0.00 in 0.00 W/m2
01:00 54.6 °F 52.9 °F 29.67 in WSW 8.1 mph 12.6 mph 94% 0.00 in 0.00 W/m2
01:01 54.6 °F 52.9 °F 29.67 in WSW 8.1 mph 12.6 mph 94% 0.00 in 0.00 W/m2
01:05 54.9 °F 53.2 °F 29.67 in WNW 4.6 mph 12.6 mph 94% 0.00 in 0.00 W/m2
01:06 54.9 °F 53.2 °F 29.67 in West 6.9 mph 12.6 mph 94% 0.00 in 0.00 W/m2
01:10 55.0 °F 53.0 °F 29.67 in West 6.9 mph 11.5 mph 93% 0.00 in 0.00 W/m2
01:11 55.0 °F 53.0 °F 29.67 in West 6.9 mph 11.5 mph 93% 0.00 in 0.00 W/m2
01:15 55.0 °F 53.0 °F 29.67 in West 9.2 mph 9.2 mph 93% 0.00 in 0.00 W/m2
01:16 55.0 °F 53.0 °F 29.67 in West 9.2 mph 9.2 mph 93% 0.00 in 0.00 W/m2
01:20 54.9 °F 52.9 °F 29.67 in West 5.8 mph 11.5 mph 93% 0.00 in 0.00 W/m2
01:21 54.9 °F 52.9 °F 29.67 in West 5.8 mph 11.5 mph 93% 0.00 in 0.00 W/m2
01:25 54.7 °F 52.7 °F 29.67 in West 9.2 mph 11.5 mph 93% 0.00 in 0.00 W/m2
01:26 54.7 °F 52.7 °F 29.67 in West 6.9 mph 9.2 mph 93% 0.00 in 0.00 W/m2
01:30 54.6 °F 52.6 °F 29.67 in West 6.9 mph 10.4 mph 93% 0.00 in 0.00 W/m2
01:31 54.6 °F 52.6 °F 29.67 in WNW 4.6 mph 6.9 mph 93% 0.00 in 0.00 W/m2
01:35 54.5 °F 52.5 °F 29.67 in West 5.8 mph 9.2 mph 93% 0.00 in 0.00 W/m2
01:36 54.5 °F 52.5 °F 29.67 in West 8.1 mph 10.3 mph 93% 0.00 in 0.00 W/m2
01:40 54.4 °F 52.4 °F 29.68 in West 4.6 mph 10.4 mph 93% 0.00 in 0.00 W/m2
01:41 54.4 °F 52.4 °F 29.68 in West 6.9 mph 6.9 mph 93% 0.00 in 0.00 W/m2
01:45 54.2 °F 52.2 °F 29.68 in West 3.5 mph 9.2 mph 93% 0.00 in 0.00 W/m2
01:46 54.2 °F 52.2 °F 29.68 in West 5.8 mph 5.8 mph 93% 0.00 in 0.00 W/m2
01:50 53.9 °F 51.9 °F 29.68 in WNW 5.8 mph 10.4 mph 93% 0.00 in 0.00 W/m2
01:51 53.9 °F 51.9 °F 29.68 in West 9.2 mph 9.2 mph 93% 0.00 in 0.00 W/m2
01:55 53.6 °F 51.6 °F 29.68 in WNW 9.2 mph 9.2 mph 93% 0.00 in 0.00 W/m2
01:56 53.5 °F 51.5 °F 29.68 in WNW 5.8 mph 9.2 mph 93% 0.00 in 0.00 W/m2
02:00 53.4 °F 51.4 °F 29.68 in West 4.6 mph 9.2 mph 93% 0.00 in 0.00 W/m2
02:01 53.4 °F 51.4 °F 29.68 in West 4.6 mph 8.1 mph 93% 0.00 in 0.00 W/m2
02:05 53.3 °F 51.3 °F 29.68 in WSW 6.9 mph 10.4 mph 93% 0.00 in 0.00 W/m2
02:06 53.3 °F 51.3 °F 29.68 in WNW 6.9 mph 9.2 mph 93% 0.00 in 0.00 W/m2
02:10 53.3 °F 51.3 °F 29.68 in WNW 8.1 mph 9.2 mph 93% 0.00 in 0.00 W/m2
02:12 53.3 °F 51.3 °F 29.68 in West 4.6 mph 9.2 mph 93% 0.00 in 0.00 W/m2
02:15 53.4 °F 51.4 °F 29.68 in West 5.8 mph 10.4 mph 93% 0.00 in 0.00 W/m2
02:17 53.4 °F 51.4 °F 29.68 in West 5.8 mph 8.1 mph 93% 0.00 in 0.00 W/m2
02:20 53.5 °F 51.2 °F 29.68 in WNW 8.1 mph 10.4 mph 92% 0.00 in 0.00 W/m2
02:22 53.5 °F 51.2 °F 29.68 in West 5.8 mph 8.1 mph 92% 0.00 in 0.00 W/m2
02:25 53.5 °F 51.2 °F 29.68 in West 6.9 mph 11.5 mph 92% 0.00 in 0.00 W/m2
02:27 53.5 °F 51.2 °F 29.68 in WSW 9.2 mph 9.2 mph 92% 0.00 in 0.00 W/m2
02:30 53.3 °F 51.0 °F 29.68 in West 6.9 mph 11.5 mph 92% 0.00 in 0.00 W/m2
02:32 53.3 °F 51.0 °F 29.68 in West 5.8 mph 6.9 mph 92% 0.00 in 0.00 W/m2
02:35 53.0 °F 50.7 °F 29.68 in West 3.5 mph 9.2 mph 92% 0.00 in 0.00 W/m2
02:37 53.0 °F 50.7 °F 29.68 in WNW 5.8 mph 6.9 mph 92% 0.00 in 0.00 W/m2
02:40 52.7 °F 50.5 °F 29.68 in WNW 6.9 mph 9.2 mph 92% 0.00 in 0.00 W/m2
02:42 52.7 °F 50.5 °F 29.68 in WNW 5.8 mph 6.9 mph 92% 0.00 in 0.00 W/m2
02:45 52.4 °F 50.2 °F 29.68 in West 5.8 mph 6.9 mph 92% 0.00 in 0.00 W/m2
02:47 52.3 °F 50.3 °F 29.68 in WNW 4.6 mph 8.1 mph 93% 0.00 in 0.00 W/m2
02:50 52.0 °F 50.0 °F 29.68 in WNW 5.8 mph 9.2 mph 93% 0.00 in 0.00 W/m2
02:52 51.9 °F 49.9 °F 29.68 in West 8.1 mph 10.3 mph 93% 0.00 in 0.00 W/m2
02:55 51.8 °F 49.8 °F 29.68 in West 5.8 mph 10.4 mph 93% 0.00 in 0.00 W/m2
02:57 51.8 °F 49.8 °F 29.68 in WNW 6.9 mph 6.9 mph 93% 0.00 in 0.00 W/m2
03:05 51.7 °F 49.8 °F 29.68 in West 3.4 mph 3.4 mph 93% 0.00 in 0.00 W/m2
03:11 51.4 °F 49.5 °F 29.68 in WNW 4.6 mph 5.8 mph 93% 0.00 in 0.00 W/m2
03:16 51.1 °F 49.2 °F 29.68 in WNW 8.1 mph 9.2 mph 93% 0.00 in 0.00 W/m2
03:21 50.8 °F 48.8 °F 29.69 in WNW 8.1 mph 9.2 mph 93% 0.00 in 0.00 W/m2
03:26 50.5 °F 48.6 °F 29.69 in WNW 3.4 mph 8.1 mph 93% 0.00 in 0.00 W/m2
03:31 50.4 °F 48.7 °F 29.69 in WNW 5.8 mph 9.2 mph 94% 0.00 in 0.00 W/m2
03:36 50.2 °F 48.3 °F 29.69 in WNW 5.8 mph 8.1 mph 93% 0.00 in 0.00 W/m2
03:41 49.8 °F 47.9 °F 29.70 in WNW 2.3 mph 6.9 mph 93% 0.00 in 0.00 W/m2
03:46 49.6 °F 48.0 °F 29.70 in WNW 4.6 mph 4.6 mph 94% 0.00 in 0.00 W/m2
03:51 49.5 °F 47.6 °F 29.70 in WNW 3.4 mph 3.4 mph 93% 0.00 in 0.00 W/m2
03:56 49.3 °F 47.4 °F 29.70 in WNW 4.6 mph 4.6 mph 93% 0.00 in 0.00 W/m2
04:01 49.2 °F 47.5 °F 29.69 in WNW 3.4 mph 3.4 mph 94% 0.00 in 0.00 W/m2
04:06 49.2 °F 47.5 °F 29.70 in WNW 2.3 mph 3.4 mph 94% 0.00 in 0.00 W/m2
04:11 49.2 °F 47.5 °F 29.70 in WNW 5.8 mph 5.8 mph 94% 0.00 in 0.00 W/m2
04:16 49.1 °F 47.5 °F 29.70 in WNW 2.3 mph 3.4 mph 94% 0.00 in 0.00 W/m2
04:21 48.7 °F 47.0 °F 29.70 in WNW 1.1 mph 2.3 mph 94% 0.00 in 0.00 W/m2
04:26 48.0 °F 46.4 °F 29.70 in WNW 1.1 mph 2.3 mph 94% 0.00 in 0.00 W/m2
04:32 47.4 °F 45.8 °F 29.70 in WNW 1.1 mph 2.3 mph 94% 0.00 in 0.00 W/m2
04:37 47.0 °F 45.7 °F 29.70 in WNW 2.3 mph 2.3 mph 95% 0.00 in 0.00 W/m2
04:42 47.2 °F 45.8 °F 29.70 in WNW 2.3 mph 3.4 mph 95% 0.00 in 0.00 W/m2
04:47 47.4 °F 46.0 °F 29.70 in Calm   2.3 mph 95% 0.00 in 0.00 W/m2
04:52 47.6 °F 46.2 °F 29.71 in Calm     95% 0.00 in 0.00 W/m2
04:57 47.5 °F 46.1 °F 29.71 in Calm     95% 0.00 in 0.00 W/m2
05:03 47.2 °F 45.8 °F 29.71 in Calm     95% 0.00 in 0.00 W/m2
05:08 46.4 °F 45.0 °F 29.71 in Calm     95% 0.00 in 0.00 W/m2
05:13 45.8 °F 44.5 °F 29.71 in Calm     95% 0.00 in 0.00 W/m2
05:18 45.4 °F 44.0 °F 29.72 in Calm     95% 0.00 in 0.00 W/m2
05:23 44.7 °F 43.4 °F 29.72 in Calm     95% 0.00 in 0.00 W/m2
05:28 45.0 °F 43.9 °F 29.72 in Calm     96% 0.00 in 0.00 W/m2
05:33 45.1 °F 44.0 °F 29.72 in Calm     96% 0.00 in 0.00 W/m2
05:38 45.1 °F 44.0 °F 29.73 in Calm     96% 0.00 in 0.00 W/m2
05:43 44.5 °F 43.4 °F 29.72 in Calm     96% 0.00 in 0.00 W/m2
05:48 44.2 °F 43.1 °F 29.73 in Calm     96% 0.00 in 0.00 W/m2
05:53 44.5 °F 43.4 °F 29.73 in Calm     96% 0.00 in 0.00 W/m2
05:58 44.5 °F 43.4 °F 29.73 in Calm     96% 0.00 in 0.00 W/m2
06:03 44.1 °F 43.0 °F 29.73 in Calm     96% 0.00 in 0.00 W/m2
06:08 44.0 °F 42.9 °F 29.73 in WSW 3.4 mph 5.8 mph 96% 0.00 in 0.00 W/m2
06:13 45.4 °F 44.3 °F 29.73 in Calm   1.1 mph 96% 0.00 in 0.00 W/m2
06:18 44.8 °F 43.7 °F 29.73 in Calm   2.3 mph 96% 0.00 in 0.00 W/m2
06:23 43.7 °F 42.6 °F 29.73 in Calm     96% 0.00 in 0.00 W/m2
06:29 43.2 °F 42.1 °F 29.73 in Calm     96% 0.00 in 0.00 W/m2
06:34 43.1 °F 42.0 °F 29.73 in Calm     96% 0.00 in 0.00 W/m2
06:39 43.0 °F 41.9 °F 29.73 in Calm   2.3 mph 96% 0.00 in 7.00 W/m2
06:44 43.5 °F 42.4 °F 29.74 in Calm   1.1 mph 96% 0.00 in 14.00 W/m2
06:49 44.3 °F 43.2 °F 29.74 in Calm   1.1 mph 96% 0.00 in 19.00 W/m2
06:54 44.3 °F 43.2 °F 29.74 in WSW 2.3 mph 2.3 mph 96% 0.00 in 26.00 W/m2
06:59 44.0 °F 42.9 °F 29.75 in WSW 2.3 mph 3.4 mph 96% 0.00 in 28.00 W/m2
07:04 44.2 °F 43.1 °F 29.75 in West 2.3 mph 3.4 mph 96% 0.00 in 26.00 W/m2
07:09 43.7 °F 42.6 °F 29.75 in West 1.1 mph 3.4 mph 96% 0.00 in 44.00 W/m2
07:14 43.7 °F 42.6 °F 29.75 in Calm   1.1 mph 96% 0.00 in 47.00 W/m2
07:19 44.1 °F 43.3 °F 29.75 in Calm   1.1 mph 97% 0.00 in 46.00 W/m2
07:24 43.9 °F 43.1 °F 29.75 in Calm     97% 0.00 in 69.00 W/m2
07:29 44.2 °F 43.4 °F 29.75 in Calm     97% 0.00 in 95.00 W/m2
07:34 43.4 °F 42.3 °F 29.76 in Calm     96% 0.00 in 32.00 W/m2
07:39 42.8 °F 41.7 °F 29.76 in Calm     96% 0.00 in 65.00 W/m2
07:44 42.9 °F 41.8 °F 29.76 in Calm     96% 0.00 in 127.00 W/m2
07:49 43.6 °F 42.8 °F 29.76 in Calm   1.1 mph 97% 0.00 in 151.00 W/m2
07:55 44.6 °F 43.8 °F 29.76 in West 1.1 mph 2.3 mph 97% 0.00 in 202.00 W/m2
08:00 46.1 °F 45.3 °F 29.76 in Calm   2.3 mph 97% 0.00 in 220.00 W/m2
08:05 46.7 °F 45.9 °F 29.76 in Calm   2.3 mph 97% 0.00 in 241.00 W/m2
08:10 47.0 °F 46.2 °F 29.77 in NW 2.3 mph 4.6 mph 97% 0.00 in 269.00 W/m2
08:15 47.8 °F 47.0 °F 29.77 in NNW 2.3 mph 4.6 mph 97% 0.00 in 253.00 W/m2
08:20 48.4 °F 47.6 °F 29.77 in NNW 2.3 mph 6.9 mph 97% 0.00 in 211.00 W/m2
08:25 49.0 °F 47.9 °F 29.77 in Calm   5.8 mph 96% 0.00 in 283.00 W/m2
08:30 49.8 °F 48.4 °F 29.77 in NNW 2.3 mph 3.4 mph 95% 0.00 in 230.00 W/m2
08:35 50.2 °F 48.3 °F 29.77 in Calm   5.8 mph 93% 0.00 in 309.00 W/m2
08:40 50.7 °F 48.5 °F 29.77 in North 3.4 mph 6.9 mph 92% 0.00 in 320.00 W/m2
08:45 51.3 °F 48.5 °F 29.77 in North 4.6 mph 6.9 mph 90% 0.00 in 330.00 W/m2
08:50 51.7 °F 48.6 °F 29.77 in NNE 2.3 mph 5.8 mph 89% 0.00 in 339.00 W/m2
08:55 52.1 °F 48.0 °F 29.78 in Calm   6.9 mph 86% 0.00 in 364.00 W/m2
09:00 52.3 °F 48.2 °F 29.79 in NE 4.6 mph 4.6 mph 86% 0.00 in 378.00 W/m2
09:05 52.8 °F 48.7 °F 29.78 in NNE 4.6 mph 6.9 mph 86% 0.00 in 253.00 W/m2
09:10 53.4 °F 49.0 °F 29.77 in NE 2.3 mph 6.9 mph 85% 0.00 in 77.00 W/m2
09:15 53.1 °F 48.4 °F 29.77 in ENE 3.4 mph 8.1 mph 84% 0.00 in 172.00 W/m2
09:21 53.1 °F 48.1 °F 29.77 in East 8.1 mph 10.3 mph 83% 0.00 in 302.00 W/m2
09:26 53.7 °F 48.3 °F 29.77 in East 8.1 mph 11.5 mph 82% 0.00 in 98.00 W/m2
09:31 53.7 °F 47.7 °F 29.77 in NE 4.6 mph 11.5 mph 80% 0.00 in 98.00 W/m2
09:36 54.2 °F 48.2 °F 29.77 in ENE 4.6 mph 10.3 mph 80% 0.00 in 211.00 W/m2
09:41 54.1 °F 47.4 °F 29.78 in ENE 3.4 mph 13.8 mph 78% 0.00 in 123.00 W/m2
09:46 54.2 °F 47.2 °F 29.78 in ENE 3.4 mph 14.9 mph 77% 0.00 in 95.00 W/m2
09:51 53.9 °F 46.2 °F 29.78 in ENE 11.5 mph 12.6 mph 75% 0.00 in 130.00 W/m2
09:56 53.7 °F 46.3 °F 29.78 in NE 4.6 mph 4.6 mph 76% 0.00 in 258.00 W/m2
10:01 54.1 °F 47.1 °F 29.78 in NE 11.5 mph 11.5 mph 77% 0.00 in 193.00 W/m2
10:06 54.3 °F 46.9 °F 29.78 in NE 6.9 mph 11.5 mph 76% 0.00 in 193.00 W/m2
10:11 54.2 °F 46.5 °F 29.78 in NE 13.8 mph 13.8 mph 75% 0.00 in 185.00 W/m2
10:16 53.8 °F 46.1 °F 29.78 in ENE 4.6 mph 9.2 mph 75% 0.00 in 200.00 W/m2
10:21 53.7 °F 46.0 °F 29.78 in NE 2.3 mph 13.8 mph 75% 0.00 in 237.00 W/m2
10:26 53.7 °F 46.0 °F 29.78 in North 13.8 mph 13.8 mph 75% 0.00 in 244.00 W/m2
10:31 53.8 °F 46.1 °F 29.78 in ESE 9.2 mph 10.3 mph 75% 0.00 in 265.00 W/m2
10:37 54.1 °F 46.7 °F 29.78 in NE 6.9 mph 8.1 mph 76% 0.00 in 288.00 W/m2
10:42 54.0 °F 46.6 °F 29.78 in ENE 5.8 mph 11.5 mph 76% 0.00 in 302.00 W/m2
10:47 54.3 °F 46.2 °F 29.79 in ENE 3.4 mph 4.6 mph 74% 0.00 in 304.00 W/m2
10:52 54.3 °F 46.6 °F 29.79 in NE 4.6 mph 6.9 mph 75% 0.00 in 308.00 W/m2
10:57 54.6 °F 47.2 °F 29.80 in North 4.6 mph 5.8 mph 76% 0.00 in 283.00 W/m2
10:58 54.4 °F 46.7 °F 29.80 in NE 2.3 mph 10.3 mph 75% 0.00 in 294.00 W/m2
11:03 54.4 °F 46.7 °F 29.80 in NNW 4.6 mph 11.5 mph 75% 0.00 in 323.00 W/m2
11:09 54.3 °F 46.6 °F 29.80 in NE 6.9 mph 11.5 mph 75% 0.00 in 267.00 W/m2
11:14 53.9 °F 46.5 °F 29.80 in North 8.1 mph 12.6 mph 76% 0.00 in 234.00 W/m2
11:19 53.9 °F 46.5 °F 29.81 in NE 4.6 mph 10.3 mph 76% 0.00 in 239.00 W/m2
11:24 53.2 °F 45.5 °F 29.80 in NE 3.4 mph 10.3 mph 75% 0.00 in 237.00 W/m2
11:29 52.4 °F 45.1 °F 29.80 in NE 11.5 mph 17.2 mph 76% 0.00 in 264.00 W/m2
11:34 51.9 °F 45.3 °F 29.80 in NE 3.4 mph 13.8 mph 78% 0.00 in 271.00 W/m2
11:39 52.0 °F 45.0 °F 29.80 in NNE 6.9 mph 17.2 mph 77% 0.00 in 322.00 W/m2
11:44 52.0 °F 45.4 °F 29.79 in ENE 9.2 mph 13.8 mph 78% 0.00 in 343.00 W/m2
11:49 51.5 °F 44.5 °F 29.79 in ENE 5.8 mph 13.8 mph 77% 0.00 in 288.00 W/m2
11:54 51.0 °F 44.4 °F 29.78 in NE 2.3 mph 16.1 mph 78% 0.00 in 265.00 W/m2
11:59 50.9 °F 44.3 °F 29.78 in ENE 13.8 mph 13.8 mph 78% 0.00 in 234.00 W/m2
12:04 50.8 °F 44.5 °F 29.78 in NE 3.4 mph 16.1 mph 79% 0.00 in 243.00 W/m2
12:09 50.6 °F 43.7 °F 29.78 in ENE 13.8 mph 14.9 mph 77% 0.00 in 304.00 W/m2
12:14 50.6 °F 44.0 °F 29.79 in NNE 10.3 mph 14.9 mph 78% 0.00 in 244.00 W/m2
12:19 50.4 °F 43.8 °F 29.78 in East 2.3 mph 13.8 mph 78% 0.00 in 207.00 W/m2
12:24 50.0 °F 43.4 °F 29.78 in NNE 14.9 mph 14.9 mph 78% 0.00 in 193.00 W/m2
12:29 49.6 °F 43.0 °F 29.79 in East 3.4 mph 12.6 mph 78% 0.00 in 178.00 W/m2
12:34 49.4 °F 43.2 °F 29.79 in NE 4.6 mph 14.9 mph 79% 0.00 in 172.00 W/m2
12:40 49.0 °F 42.8 °F 29.78 in East 12.6 mph 13.8 mph 79% 0.00 in 151.00 W/m2
12:45 48.7 °F 42.8 °F 29.78 in NE 3.4 mph 11.5 mph 80% 0.00 in 149.00 W/m2
12:50 48.5 °F 42.6 °F 29.78 in ENE 4.6 mph 11.5 mph 80% 0.00 in 141.00 W/m2
12:55 48.5 °F 43.0 °F 29.78 in East 14.9 mph 17.2 mph 81% 0.00 in 135.00 W/m2
13:00 48.3 °F 42.8 °F 29.78 in ENE 3.4 mph 17.2 mph 81% 0.00 in 162.00 W/m2
13:05 48.5 °F 43.0 °F 29.77 in NE 5.8 mph 13.8 mph 81% 0.00 in 188.00 W/m2
13:10 48.7 °F 43.1 °F 29.77 in NE 10.3 mph 14.9 mph 81% 0.00 in 174.00 W/m2
13:15 48.3 °F 42.4 °F 29.77 in East 9.2 mph 18.4 mph 80% 0.00 in 185.00 W/m2
13:20 48.4 °F 43.2 °F 29.77 in NE 5.8 mph 13.8 mph 82% 0.00 in 188.00 W/m2
13:25 48.3 °F 42.8 °F 29.77 in NNE 9.2 mph 14.9 mph 81% 0.00 in 181.00 W/m2
13:30 48.1 °F 42.5 °F 29.77 in NE 9.2 mph 16.1 mph 81% 0.00 in 169.00 W/m2
13:35 48.4 °F 42.8 °F 29.77 in NE 8.1 mph 14.9 mph 81% 0.00 in 174.00 W/m2
13:40 48.1 °F 42.5 °F 29.78 in NE 8.1 mph 17.2 mph 81% 0.00 in 230.00 W/m2
13:45 48.1 °F 42.9 °F 29.78 in NNE 6.9 mph 12.6 mph 82% 0.00 in 213.00 W/m2
13:50 48.0 °F 42.5 °F 29.79 in NE 3.4 mph 17.2 mph 81% 0.00 in 221.00 W/m2
13:55 48.0 °F 42.5 °F 29.78 in North 4.6 mph 17.2 mph 81% 0.00 in 230.00 W/m2
14:00 47.8 °F 42.6 °F 29.78 in ENE 5.8 mph 10.3 mph 82% 0.00 in 190.00 W/m2
14:05 47.7 °F 42.5 °F 29.78 in NE 6.9 mph 13.8 mph 82% 0.00 in 137.00 W/m2
14:11 47.4 °F 42.2 °F 29.79 in NNE 8.1 mph 14.9 mph 82% 0.00 in 132.00 W/m2
14:16 47.6 °F 42.7 °F 29.78 in NE 10.3 mph 13.8 mph 83% 0.00 in 258.00 W/m2
14:21 47.4 °F 41.9 °F 29.78 in North 10.3 mph 20.7 mph 81% 0.00 in 285.00 W/m2
14:26 47.2 °F 42.0 °F 29.78 in NNE 6.9 mph 16.1 mph 82% 0.00 in 294.00 W/m2
14:31 46.9 °F 41.7 °F 29.78 in NE 11.5 mph 16.1 mph 82% 0.00 in 287.00 W/m2
14:36 47.0 °F 41.8 °F 29.78 in NE 5.8 mph 20.7 mph 82% 0.00 in 207.00 W/m2
14:41 46.8 °F 41.3 °F 29.77 in NE 16.1 mph 16.1 mph 81% 0.00 in 225.00 W/m2
14:46 46.2 °F 41.3 °F 29.77 in East 6.9 mph 6.9 mph 83% 0.00 in 204.00 W/m2
14:51 45.9 °F 41.0 °F 29.76 in NE 11.5 mph 16.1 mph 83% 0.00 in 134.00 W/m2
14:56 45.4 °F 40.5 °F 29.76 in ENE 8.1 mph 10.3 mph 83% 0.00 in 114.00 W/m2
15:01 45.1 °F 40.6 °F 29.77 in ENE 10.3 mph 11.5 mph 84% 0.00 in 134.00 W/m2
15:06 45.0 °F 40.5 °F 29.77 in NE 2.3 mph 8.1 mph 84% 0.00 in 109.00 W/m2
15:11 44.9 °F 40.4 °F 29.77 in NNE 9.2 mph 10.3 mph 84% 0.00 in 90.00 W/m2
15:16 44.8 °F 40.3 °F 29.76 in NNE 8.1 mph 9.2 mph 84% 0.00 in 118.00 W/m2
15:21 44.8 °F 40.6 °F 29.76 in NE 9.2 mph 10.3 mph 85% 0.00 in 125.00 W/m2
15:27 44.7 °F 40.2 °F 29.76 in NE 10.3 mph 10.3 mph 84% 0.00 in 120.00 W/m2
15:32 44.5 °F 40.0 °F 29.76 in NE 5.8 mph 17.2 mph 84% 0.00 in 98.00 W/m2
15:37 44.3 °F 40.1 °F 29.76 in NE 9.2 mph 11.5 mph 85% 0.00 in 83.00 W/m2
15:42 44.0 °F 39.8 °F 29.77 in NNE 14.9 mph 14.9 mph 85% 0.00 in 46.00 W/m2
15:47 43.6 °F 39.7 °F 29.77 in ENE 4.6 mph 17.2 mph 86% 0.00 in 30.00 W/m2
15:52 43.3 °F 39.4 °F 29.77 in NE 9.2 mph 12.6 mph 86% 0.00 in 14.00 W/m2
15:57 43.0 °F 39.4 °F 29.77 in NE 8.1 mph 13.8 mph 87% 0.00 in 9.00 W/m2
16:02 42.7 °F 39.4 °F 29.77 in NNE 10.3 mph 18.4 mph 88% 0.00 in 7.00 W/m2
16:07 42.4 °F 39.4 °F 29.77 in North 4.6 mph 10.3 mph 89% 0.00 in 7.00 W/m2
16:12 42.2 °F 39.5 °F 29.77 in East 9.2 mph 13.8 mph 90% 0.01 in 9.00 W/m2
16:17 41.9 °F 39.2 °F 29.77 in NE 11.5 mph 13.8 mph 90% 0.01 in 12.00 W/m2
16:22 41.7 °F 39.3 °F 29.75 in North 4.6 mph 11.5 mph 91% 0.02 in 7.00 W/m2
16:27 41.5 °F 39.1 °F 29.76 in North 10.3 mph 13.8 mph 91% 0.02 in 9.00 W/m2
16:32 41.3 °F 38.9 °F 29.76 in NNE 9.2 mph 14.9 mph 91% 0.02 in 9.00 W/m2
16:37 41.0 °F 38.9 °F 29.76 in ENE 5.8 mph 13.8 mph 92% 0.02 in 12.00 W/m2
16:42 40.7 °F 38.3 °F 29.75 in ENE 13.8 mph 16.1 mph 91% 0.02 in 16.00 W/m2
16:47 40.4 °F 38.0 °F 29.76 in NE 6.9 mph 12.6 mph 91% 0.02 in 16.00 W/m2
16:48 40.4 °F 38.0 °F 29.76 in ENE 9.2 mph 12.6 mph 91% 0.02 in 16.00 W/m2
16:53 40.3 °F 37.9 °F 29.77 in East 2.3 mph 18.4 mph 91% 0.02 in 11.00 W/m2
16:58 40.3 °F 38.2 °F 29.77 in East 9.2 mph 14.9 mph 92% 0.02 in 11.00 W/m2
17:03 40.1 °F 38.0 °F 29.77 in NE 6.9 mph 12.6 mph 92% 0.02 in 9.00 W/m2
17:08 39.9 °F 37.8 °F 29.77 in ENE 4.6 mph 10.3 mph 92% 0.02 in 5.00 W/m2
17:13 39.7 °F 37.6 °F 29.77 in NE 3.4 mph 16.1 mph 92% 0.01 in 0.00 W/m2
17:18 39.7 °F 37.6 °F 29.77 in NE 6.9 mph 17.2 mph 92% 0.01 in 0.00 W/m2
17:21 39.6 °F 37.5 °F 29.77 in ENE 2.3 mph 17.2 mph 92% 0.01 in 0.00 W/m2
17:26 39.5 °F 37.4 °F 29.76 in NE 8.1 mph 20.7 mph 92% 0.01 in 0.00 W/m2
17:31 39.4 °F 37.3 °F 29.75 in NE 18.4 mph 18.4 mph 92% 0.01 in 0.00 W/m2
17:36 39.2 °F 37.1 °F 29.74 in NE 9.2 mph 27.6 mph 92% 0.01 in 0.00 W/m2
17:41 39.1 °F 37.0 °F 29.74 in North 20.7 mph 25.3 mph 92% 0.01 in 0.00 W/m2
17:46 38.9 °F 37.0 °F 29.73 in NNE 12.6 mph 19.5 mph 93% 0.02 in 0.00 W/m2
17:51 38.8 °F 37.0 °F 29.73 in NNE 4.6 mph 19.5 mph 93% 0.02 in 0.00 W/m2
17:56 38.8 °F 37.0 °F 29.73 in East 6.9 mph 24.1 mph 93% 0.03 in 0.00 W/m2
18:01 38.8 °F 37.0 °F 29.72 in NNW 18.4 mph 19.5 mph 93% 0.03 in 0.00 W/m2
18:06 38.8 °F 37.2 °F 29.74 in NE 5.8 mph 19.5 mph 94% 0.04 in 0.00 W/m2
18:11 38.8 °F 37.2 °F 29.74 in NE 12.6 mph 12.6 mph 94% 0.04 in 0.00 W/m2
18:16 38.7 °F 37.1 °F 29.75 in NE 3.4 mph 5.8 mph 94% 0.04 in 0.00 W/m2
18:21 38.8 °F 37.2 °F 29.72 in NE 5.8 mph 8.1 mph 94% 0.07 in 0.00 W/m2
18:26 38.7 °F 37.1 °F 29.73 in NE 8.1 mph 10.3 mph 94% 0.07 in 0.00 W/m2
18:31 38.7 °F 37.1 °F 29.74 in NE 6.9 mph 18.4 mph 94% 0.09 in 0.00 W/m2
18:36 38.7 °F 37.1 °F 29.74 in NE 6.9 mph 10.3 mph 94% 0.10 in 0.00 W/m2
18:41 38.6 °F 37.0 °F 29.73 in ENE 10.3 mph 10.3 mph 94% 0.10 in 0.00 W/m2
18:46 38.6 °F 37.0 °F 29.72 in ENE 10.3 mph 17.2 mph 94% 0.10 in 0.00 W/m2
18:52 38.5 °F 36.9 °F 29.74 in North 9.2 mph 12.6 mph 94% 0.10 in 0.00 W/m2
18:57 38.5 °F 36.9 °F 29.74 in ENE 17.2 mph 17.2 mph 94% 0.10 in 0.00 W/m2
19:02 38.5 °F 36.9 °F 29.73 in NE 8.1 mph 16.1 mph 94% 0.10 in 0.00 W/m2
19:07 38.6 °F 37.0 °F 29.72 in North 14.9 mph 16.1 mph 94% 0.09 in 0.00 W/m2
19:12 38.6 °F 37.0 °F 29.73 in NE 6.9 mph 13.8 mph 94% 0.09 in 0.00 W/m2
19:17 38.6 °F 37.0 °F 29.72 in ENE 11.5 mph 17.2 mph 94% 0.09 in 0.00 W/m2
19:22 38.6 °F 37.0 °F 29.72 in ENE 5.8 mph 10.3 mph 94% 0.07 in 0.00 W/m2
19:27 38.5 °F 36.9 °F 29.72 in ENE 12.6 mph 19.5 mph 94% 0.05 in 0.00 W/m2
19:32 38.5 °F 36.9 °F 29.72 in NE 10.3 mph 14.9 mph 94% 0.03 in 0.00 W/m2
19:37 38.5 °F 36.9 °F 29.72 in NE 4.6 mph 11.5 mph 94% 0.02 in 0.00 W/m2
19:42 38.5 °F 36.9 °F 29.72 in East 10.3 mph 16.1 mph 94% 0.01 in 0.00 W/m2
19:47 38.5 °F 36.9 °F 29.73 in East 9.2 mph 13.8 mph 94% 0.01 in 0.00 W/m2
19:52 38.6 °F 37.0 °F 29.73 in NNE 9.2 mph 11.5 mph 94% 0.01 in 0.00 W/m2
19:57 38.7 °F 37.1 °F 29.73 in East 5.8 mph 12.6 mph 94% 0.00 in 0.00 W/m2
20:02 38.8 °F 37.2 °F 29.72 in ENE 5.8 mph 9.2 mph 94% 0.00 in 0.00 W/m2
20:07 38.7 °F 37.4 °F 29.70 in NNE 12.6 mph 18.4 mph 95% 0.00 in 0.00 W/m2
20:12 38.8 °F 37.5 °F 29.71 in NE 4.6 mph 14.9 mph 95% 0.00 in 0.00 W/m2
20:17 38.8 °F 37.2 °F 29.71 in NNE 4.6 mph 13.8 mph 94% 0.00 in 0.00 W/m2
20:23 38.9 °F 37.6 °F 29.71 in NE 13.8 mph 17.2 mph 95% 0.00 in 0.00 W/m2
20:28 39.0 °F 37.7 °F 29.71 in ENE 8.1 mph 13.8 mph 95% 0.00 in 0.00 W/m2
20:33 39.1 °F 37.8 °F 29.71 in NE 4.6 mph 9.2 mph 95% 0.00 in 0.00 W/m2
20:38 39.2 °F 37.9 °F 29.70 in ENE 12.6 mph 13.8 mph 95% 0.00 in 0.00 W/m2
20:43 39.3 °F 37.7 °F 29.71 in NE 9.2 mph 18.4 mph 94% 0.00 in 0.00 W/m2
20:48 39.4 °F 38.1 °F 29.71 in NE 6.9 mph 14.9 mph 95% 0.00 in 0.00 W/m2
20:53 39.4 °F 38.1 °F 29.71 in NE 5.8 mph 13.8 mph 95% 0.00 in 0.00 W/m2
20:58 39.5 °F 38.2 °F 29.71 in NE 9.2 mph 11.5 mph 95% 0.00 in 0.00 W/m2
21:03 39.5 °F 38.2 °F 29.71 in NE 5.8 mph 14.9 mph 95% 0.00 in 0.00 W/m2
21:08 39.6 °F 38.3 °F 29.71 in NNE 9.2 mph 11.5 mph 95% 0.00 in 0.00 W/m2
21:13 39.5 °F 37.9 °F 29.71 in NNE 11.5 mph 12.6 mph 94% 0.00 in 0.00 W/m2
21:18 39.6 °F 38.0 °F 29.71 in NE 4.6 mph 9.2 mph 94% 0.00 in 0.00 W/m2
21:23 39.6 °F 38.0 °F 29.71 in East 2.3 mph 13.8 mph 94% 0.00 in 0.00 W/m2
21:28 39.7 °F 38.1 °F 29.72 in NNE 4.6 mph 9.2 mph 94% 0.00 in 0.00 W/m2
21:33 39.8 °F 38.2 °F 29.72 in NE 9.2 mph 14.9 mph 94% 0.00 in 0.00 W/m2
21:38 39.9 °F 38.3 °F 29.71 in NE 12.6 mph 14.9 mph 94% 0.00 in 0.00 W/m2
peotoneweather.com
Compliments of Weather Underground - 1.5 mb